createdAt,value
2023-04-08T00:00:09.785Z,24.8680
2023-04-08T00:01:13.677Z,24.8787
2023-04-08T00:02:17.636Z,24.9110
2023-04-08T00:03:21.701Z,24.8985
2023-04-08T00:04:25.830Z,24.8874
2023-04-08T00:05:29.801Z,24.8691
2023-04-08T00:06:33.690Z,24.8333
2023-04-08T00:07:37.587Z,24.8471
2023-04-08T00:08:41.696Z,24.8861
2023-04-08T00:09:45.605Z,24.9059
2023-04-08T00:10:49.714Z,24.9188
2023-04-08T00:11:53.624Z,24.9163
2023-04-08T00:12:57.543Z,24.9146
2023-04-08T00:14:01.444Z,24.9076
2023-04-08T00:15:05.322Z,24.8847
2023-04-08T00:16:05.497Z,24.9044
2023-04-08T00:17:09.436Z,24.9117
2023-04-08T00:18:13.293Z,24.9119
2023-04-08T00:19:17.208Z,24.9226
2023-04-08T00:20:21.095Z,24.9121
2023-04-08T00:21:21.245Z,24.8876
2023-04-08T00:22:25.122Z,24.8847
2023-04-08T00:23:29.118Z,24.8774
2023-04-08T00:24:32.996Z,24.8591
2023-04-08T00:25:36.903Z,24.8471
2023-04-08T00:26:40.784Z,24.8422
2023-04-08T00:27:44.700Z,24.8705
2023-04-08T00:28:48.705Z,24.9025
2023-04-08T00:29:52.649Z,24.9021
2023-04-08T00:30:56.544Z,24.8805
2023-04-08T00:32:00.432Z,24.8805
2023-04-08T00:33:04.428Z,24.8206
2023-04-08T00:34:08.321Z,24.8313
2023-04-08T00:35:12.222Z,24.7853
2023-04-08T00:36:16.128Z,24.8275
2023-04-08T00:37:20.026Z,24.8044
2023-04-08T00:38:23.918Z,24.8206
2023-04-08T00:39:27.818Z,24.8429
2023-04-08T00:40:31.715Z,24.7942
2023-04-08T00:41:35.609Z,24.8620
2023-04-08T00:42:39.503Z,24.8712
2023-04-08T00:43:43.520Z,24.7988
2023-04-08T00:44:47.423Z,24.7815
2023-04-08T00:45:51.554Z,24.8242
2023-04-08T00:46:55.443Z,24.7897
2023-04-08T00:47:59.365Z,24.7839
2023-04-08T00:49:03.260Z,24.8723
2023-04-08T00:50:07.171Z,24.8796
2023-04-08T00:51:11.388Z,24.8872
2023-04-08T00:52:15.288Z,24.8832
2023-04-08T00:53:19.191Z,24.8707
2023-04-08T00:54:23.071Z,24.8169
2023-04-08T00:55:26.961Z,24.7948
2023-04-08T00:56:31.100Z,24.8215
2023-04-08T00:57:34.987Z,24.8264
2023-04-08T00:58:39.142Z,24.8320
2023-04-08T00:59:43.036Z,24.7950
2023-04-08T01:00:46.942Z,24.7784
2023-04-08T01:01:50.888Z,24.7866
2023-04-08T01:02:55.065Z,24.8160
2023-04-08T01:03:59.124Z,24.7948
2023-04-08T01:05:03.049Z,24.8293
2023-04-08T01:06:07.152Z,24.8703
2023-04-08T01:07:11.049Z,24.8596
2023-04-08T01:08:14.936Z,24.8264
2023-04-08T01:09:19.168Z,24.8667
2023-04-08T01:10:23.056Z,24.8576
2023-04-08T01:11:26.966Z,24.8344
2023-04-08T01:12:30.870Z,24.8674
2023-04-08T01:13:34.988Z,24.8318
2023-04-08T01:14:38.868Z,24.8251
2023-04-08T01:15:42.800Z,24.8284
2023-04-08T01:16:46.689Z,24.8353
2023-04-08T01:17:50.623Z,24.8589
2023-04-08T01:18:54.748Z,24.8649
2023-04-08T01:19:58.656Z,24.8522
2023-04-08T01:21:02.538Z,24.8251
2023-04-08T01:22:06.708Z,24.8663
2023-04-08T01:23:10.611Z,24.8502
2023-04-08T01:24:14.487Z,24.8778
2023-04-08T01:25:18.393Z,24.8093
2023-04-08T01:26:22.283Z,24.8155
2023-04-08T01:27:26.205Z,24.8358
2023-04-08T01:28:30.074Z,24.8278
2023-04-08T01:29:34.331Z,24.8320
2023-04-08T01:30:38.201Z,24.8320
2023-04-08T01:31:42.360Z,24.8402
2023-04-08T01:32:46.220Z,24.8340
2023-04-08T01:33:50.118Z,24.8525
2023-04-08T01:34:54.002Z,24.8765
2023-04-08T01:35:57.981Z,24.8954
2023-04-08T01:37:01.865Z,24.8620
2023-04-08T01:38:05.768Z,24.8525
2023-04-08T01:39:09.966Z,24.8502
2023-04-08T01:40:13.885Z,24.8625
2023-04-08T01:41:14.198Z,24.8560
2023-04-08T01:42:18.107Z,24.8547
2023-04-08T01:43:22.008Z,24.8734
2023-04-08T01:44:25.897Z,24.8580
2023-04-08T01:45:29.804Z,24.9003
2023-04-08T01:46:34.125Z,24.9099
2023-04-08T01:47:38.046Z,24.9130
2023-04-08T01:48:41.948Z,24.8763
2023-04-08T01:49:46.060Z,24.8424
2023-04-08T01:50:49.950Z,24.8060
2023-04-08T01:51:53.855Z,24.8177
2023-04-08T01:52:57.751Z,24.8369
2023-04-08T01:54:01.661Z,24.8658
2023-04-08T01:55:05.545Z,24.8562
2023-04-08T01:56:09.454Z,24.8505
2023-04-08T01:57:13.391Z,24.8367
2023-04-08T01:58:17.256Z,24.8039
2023-04-08T01:59:21.173Z,24.8513
2023-04-08T02:00:25.067Z,24.8335
2023-04-08T02:01:29.002Z,24.8251
2023-04-08T02:02:33.121Z,24.8520
2023-04-08T02:03:37.358Z,24.8013
2023-04-08T02:04:41.529Z,24.7570
2023-04-08T02:05:41.940Z,24.8230
2023-04-08T02:06:45.834Z,24.8175
2023-04-08T02:07:49.730Z,24.7975
2023-04-08T02:08:53.830Z,24.8186
2023-04-08T02:09:57.746Z,24.8402
2023-04-08T02:11:01.621Z,24.7634
2023-04-08T02:12:05.769Z,24.8211
2023-04-08T02:13:09.650Z,24.7650
2023-04-08T02:14:13.541Z,24.7828
2023-04-08T02:15:17.424Z,24.8496
2023-04-08T02:16:21.345Z,24.8496
2023-04-08T02:17:25.218Z,24.8825
2023-04-08T02:18:29.124Z,24.8571
2023-04-08T02:19:33.154Z,24.8654
2023-04-08T02:20:37.053Z,24.8689
2023-04-08T02:21:41.172Z,24.8665
2023-04-08T02:22:45.082Z,24.8509
2023-04-08T02:23:48.968Z,24.8785
2023-04-08T02:24:52.880Z,24.8972
2023-04-08T02:25:56.766Z,24.9052
2023-04-08T02:27:00.680Z,24.8876
2023-04-08T02:28:04.572Z,24.8981
2023-04-08T02:29:08.490Z,24.8809
2023-04-08T02:30:12.371Z,24.8849
2023-04-08T02:31:16.285Z,24.8887
2023-04-08T02:32:20.348Z,24.8827
2023-04-08T02:33:24.234Z,24.8818
2023-04-08T02:34:28.121Z,24.8883
2023-04-08T02:35:32.041Z,24.8549
2023-04-08T02:36:35.923Z,24.8732
2023-04-08T02:37:39.805Z,24.8344
2023-04-08T02:38:43.712Z,24.8327
2023-04-08T02:39:47.589Z,24.8834
2023-04-08T02:40:51.588Z,24.9041
2023-04-08T02:41:55.791Z,24.8912
2023-04-08T02:42:59.695Z,24.8774
2023-04-08T02:44:03.609Z,24.8402
2023-04-08T02:45:07.505Z,24.8416
2023-04-08T02:46:11.455Z,24.8004
2023-04-08T02:47:15.377Z,24.8146
2023-04-08T02:48:19.256Z,24.8611
2023-04-08T02:49:23.171Z,24.8709
2023-04-08T02:50:27.068Z,24.8380
2023-04-08T02:51:30.968Z,24.8195
2023-04-08T02:52:34.851Z,24.8393
2023-04-08T02:53:38.738Z,24.8574
2023-04-08T02:54:42.625Z,24.8691
2023-04-08T02:55:46.544Z,24.8044
2023-04-08T02:56:50.427Z,24.8111
2023-04-08T02:57:54.310Z,24.8249
2023-04-08T02:58:58.230Z,24.8812
2023-04-08T03:00:02.125Z,24.8547
2023-04-08T03:01:06.039Z,24.8264
2023-04-08T03:02:10.372Z,24.8513
2023-04-08T03:03:14.422Z,24.8801
2023-04-08T03:04:18.379Z,24.8787
2023-04-08T03:05:22.269Z,24.8378
2023-04-08T03:06:26.204Z,24.8522
2023-04-08T03:07:30.290Z,24.8513
2023-04-08T03:08:34.205Z,24.8467
2023-04-08T03:09:38.087Z,24.8631
2023-04-08T03:10:41.997Z,24.8197
2023-04-08T03:11:45.872Z,24.8028
2023-04-08T03:12:49.786Z,24.8082
2023-04-08T03:13:53.656Z,24.7879
2023-04-08T03:14:57.564Z,24.7913
2023-04-08T03:16:01.462Z,24.8128
2023-04-08T03:17:05.587Z,24.8251
2023-04-08T03:18:09.498Z,24.8754
2023-04-08T03:19:13.635Z,24.8927
2023-04-08T03:20:17.507Z,24.8990
2023-04-08T03:21:21.423Z,24.8656
2023-04-08T03:22:25.303Z,24.9070
2023-04-08T03:23:29.237Z,24.8787
2023-04-08T03:24:33.118Z,24.8162
2023-04-08T03:25:37.029Z,24.8022
2023-04-08T03:26:40.913Z,24.8571
2023-04-08T03:27:44.813Z,24.8967
2023-04-08T03:28:49.033Z,24.9297
2023-04-08T03:29:53.161Z,24.9510
2023-04-08T03:30:57.220Z,24.9444
2023-04-08T03:32:01.214Z,24.9777
2023-04-08T03:33:06.897Z,24.9840
2023-04-08T03:34:06.075Z,24.9616
2023-04-08T03:35:09.956Z,24.9488
2023-04-08T03:36:13.873Z,24.9628
2023-04-08T03:37:17.747Z,24.9891
2023-04-08T03:38:21.650Z,24.9697
2023-04-08T03:39:25.646Z,24.9608
2023-04-08T03:40:29.526Z,24.9691
2023-04-08T03:41:33.421Z,24.9537
2023-04-08T03:42:37.304Z,24.9858
2023-04-08T03:43:41.209Z,24.9611
2023-04-08T03:44:45.099Z,24.9510
2023-04-08T03:45:49.039Z,25.0082
2023-04-08T03:46:53.177Z,24.9927
2023-04-08T03:47:57.135Z,24.9691
2023-04-08T03:49:01.036Z,24.9704
2023-04-08T03:50:05.172Z,24.9993
2023-04-08T03:51:09.066Z,25.0062
2023-04-08T03:52:12.967Z,25.0329
2023-04-08T03:53:16.901Z,25.0087
2023-04-08T03:54:20.797Z,24.9984
2023-04-08T03:55:24.686Z,25.0474
2023-04-08T03:56:28.591Z,25.0886
2023-04-08T03:57:32.714Z,25.0834
2023-04-08T03:58:36.610Z,25.0191
2023-04-08T03:59:40.742Z,25.0042
2023-04-08T04:00:44.657Z,25.0421
2023-04-08T04:01:48.552Z,25.0062
2023-04-08T04:02:53.033Z,25.0474
2023-04-08T04:03:57.079Z,25.0801
2023-04-08T04:05:01.034Z,25.0465
2023-04-08T04:06:04.960Z,25.0354
2023-04-08T04:07:08.852Z,25.0412
2023-04-08T04:08:12.836Z,25.0085
2023-04-08T04:09:17.050Z,25.0131
2023-04-08T04:10:20.946Z,25.0777
2023-04-08T04:11:24.855Z,25.0968
2023-04-08T04:12:28.765Z,25.0819
2023-04-08T04:13:32.645Z,25.0363
2023-04-08T04:14:36.504Z,24.9935
2023-04-08T04:15:40.434Z,25.0107
2023-04-08T04:16:44.514Z,25.0530
2023-04-08T04:17:48.469Z,25.1153
2023-04-08T04:18:52.674Z,25.1166
2023-04-08T04:19:57.240Z,25.1685
2023-04-08T04:21:01.139Z,25.2027
2023-04-08T04:22:05.209Z,25.1865
2023-04-08T04:23:09.087Z,25.1417
2023-04-08T04:24:13.278Z,25.1567
2023-04-08T04:25:17.289Z,25.1415
2023-04-08T04:26:21.139Z,25.1538
2023-04-08T04:27:25.037Z,25.1789
2023-04-08T04:28:28.918Z,25.2012
2023-04-08T04:29:32.813Z,25.1994
2023-04-08T04:30:36.708Z,25.2130
2023-04-08T04:31:40.670Z,25.1967
2023-04-08T04:32:44.830Z,25.2412
2023-04-08T04:33:48.726Z,25.1716
2023-04-08T04:34:52.598Z,25.1233
2023-04-08T04:35:56.547Z,25.1101
2023-04-08T04:37:00.482Z,25.1010
2023-04-08T04:38:04.385Z,25.1019
2023-04-08T04:39:08.270Z,25.1602
2023-04-08T04:40:12.180Z,25.1475
2023-04-08T04:41:16.069Z,25.0788
2023-04-08T04:42:19.978Z,25.0071
2023-04-08T04:43:23.865Z,25.0354
2023-04-08T04:44:28.013Z,25.0541
2023-04-08T04:45:31.900Z,25.0285
2023-04-08T04:46:35.859Z,25.0207
2023-04-08T04:47:40.025Z,25.0683
2023-04-08T04:48:43.998Z,25.0621
2023-04-08T04:49:47.883Z,25.0062
2023-04-08T04:50:51.795Z,25.0681
2023-04-08T04:51:55.926Z,25.0919
2023-04-08T04:52:59.843Z,25.0801
2023-04-08T04:54:03.714Z,25.0770
2023-04-08T04:55:07.610Z,25.0541
2023-04-08T04:56:11.500Z,25.0507
2023-04-08T04:57:15.613Z,25.0512
2023-04-08T04:58:19.508Z,25.0583
2023-04-08T04:59:23.391Z,25.0218
2023-04-08T05:00:27.520Z,25.0147
2023-04-08T05:01:31.477Z,25.0381
2023-04-08T05:02:35.561Z,25.0356
2023-04-08T05:03:39.512Z,25.0498
2023-04-08T05:04:43.571Z,25.0303
2023-04-08T05:05:47.447Z,24.9875
2023-04-08T05:06:51.354Z,24.9958
2023-04-08T05:07:55.561Z,24.9891
2023-04-08T05:08:59.458Z,25.0069
2023-04-08T05:10:03.356Z,24.9873
2023-04-08T05:11:07.259Z,24.9855
2023-04-08T05:12:11.463Z,24.9724
2023-04-08T05:13:15.362Z,24.9361
2023-04-08T05:14:19.236Z,24.9097
2023-04-08T05:15:23.167Z,24.9239
2023-04-08T05:16:27.104Z,24.9893
2023-04-08T05:17:31.373Z,25.0249
2023-04-08T05:18:35.255Z,25.0741
2023-04-08T05:19:39.373Z,25.1117
2023-04-08T05:20:43.270Z,25.1275
2023-04-08T05:21:47.183Z,25.1725
2023-04-08T05:22:51.111Z,25.1954
2023-04-08T05:23:55.021Z,25.1480
2023-04-08T05:24:58.913Z,25.2127
2023-04-08T05:26:02.814Z,25.2871
2023-04-08T05:27:06.700Z,25.3422
2023-04-08T05:28:10.826Z,25.2746
2023-04-08T05:29:14.718Z,25.2112
2023-04-08T05:30:18.935Z,25.3038
2023-04-08T05:31:22.849Z,25.3249
2023-04-08T05:32:26.735Z,25.3354
2023-04-08T05:33:30.622Z,25.3084
2023-04-08T05:34:34.514Z,25.2942
2023-04-08T05:35:38.441Z,25.3175
2023-04-08T05:36:42.319Z,25.2790
2023-04-08T05:37:46.448Z,25.1360
2023-04-08T05:38:50.484Z,25.1284
2023-04-08T05:39:54.663Z,25.1733
2023-04-08T05:40:58.538Z,25.2018
2023-04-08T05:42:02.450Z,25.2891
2023-04-08T05:43:06.330Z,25.3661
2023-04-08T05:44:10.239Z,25.3100
2023-04-08T05:45:14.133Z,25.1932
2023-04-08T05:46:18.054Z,25.2984
2023-04-08T05:47:21.955Z,25.3569
2023-04-08T05:48:25.829Z,25.2748
2023-04-08T05:49:29.729Z,25.3313
2023-04-08T05:50:33.875Z,25.2984
2023-04-08T05:51:37.759Z,25.3093
2023-04-08T05:52:41.662Z,25.3107
2023-04-08T05:53:45.533Z,25.3636
2023-04-08T05:54:49.444Z,25.2450
2023-04-08T05:55:53.318Z,25.1696
2023-04-08T05:56:57.212Z,25.1500
2023-04-08T05:58:01.103Z,25.1978
2023-04-08T05:59:05.002Z,25.2595
2023-04-08T06:00:09.126Z,25.2194
2023-04-08T06:01:13.035Z,25.2530
2023-04-08T06:02:16.952Z,25.2241
2023-04-08T06:03:21.111Z,25.2768
2023-04-08T06:04:25.232Z,25.3051
2023-04-08T06:05:29.139Z,25.3527
2023-04-08T06:06:33.019Z,25.3164
2023-04-08T06:07:36.929Z,25.2637
2023-04-08T06:08:40.836Z,25.2793
2023-04-08T06:09:45.414Z,25.3799
2023-04-08T06:10:49.353Z,25.3810
2023-04-08T06:11:53.197Z,25.3365
2023-04-08T06:12:57.105Z,25.3365
2023-04-08T06:14:00.993Z,25.2819
2023-04-08T06:15:04.911Z,25.3107
2023-04-08T06:16:08.820Z,25.3153
2023-04-08T06:17:12.714Z,25.2853
2023-04-08T06:18:16.600Z,25.2657
2023-04-08T06:19:20.494Z,25.3445
2023-04-08T06:20:24.787Z,25.3338
2023-04-08T06:21:28.658Z,25.3672
2023-04-08T06:22:32.570Z,25.3959
2023-04-08T06:23:36.455Z,25.4043
2023-04-08T06:24:40.366Z,25.4090
2023-04-08T06:25:40.812Z,25.4314
2023-04-08T06:26:44.851Z,25.4101
2023-04-08T06:27:48.936Z,25.4126
2023-04-08T06:28:52.844Z,25.3972
2023-04-08T06:29:56.734Z,25.3868
2023-04-08T06:31:00.670Z,25.3988
2023-04-08T06:32:04.620Z,25.4043
2023-04-08T06:33:08.561Z,25.4110
2023-04-08T06:34:12.446Z,25.3981
2023-04-08T06:35:16.377Z,25.3618
2023-04-08T06:36:20.230Z,25.3318
2023-04-08T06:37:24.138Z,25.3638
2023-04-08T06:38:28.048Z,25.3636
2023-04-08T06:39:31.944Z,25.3133
2023-04-08T06:40:35.963Z,25.3467
2023-04-08T06:41:39.822Z,25.3149
2023-04-08T06:42:43.929Z,25.3006
2023-04-08T06:43:47.824Z,25.3776
2023-04-08T06:44:51.719Z,25.3569
2023-04-08T06:45:55.784Z,25.3271
2023-04-08T06:46:59.659Z,25.3193
2023-04-08T06:48:03.575Z,25.3269
2023-04-08T06:49:07.468Z,25.3483
2023-04-08T06:50:11.328Z,25.3543
2023-04-08T06:51:15.241Z,25.3394
2023-04-08T06:52:19.124Z,25.3696
2023-04-08T06:53:19.415Z,25.3658
2023-04-08T06:54:23.291Z,25.3663
2023-04-08T06:55:27.204Z,25.3712
2023-04-08T06:56:31.089Z,25.3923
2023-04-08T06:57:35.001Z,25.4221
2023-04-08T06:58:38.885Z,25.4088
2023-04-08T06:59:42.806Z,25.4502
2023-04-08T07:00:47.691Z,25.4413
2023-04-08T07:01:51.784Z,25.4310
2023-04-08T07:02:56.176Z,25.3990
2023-04-08T07:04:00.071Z,25.3856
2023-04-08T07:05:03.966Z,25.4357
2023-04-08T07:06:07.870Z,25.4370
2023-04-08T07:07:11.771Z,25.4502
2023-04-08T07:08:15.736Z,25.4729
2023-04-08T07:09:19.572Z,25.5002
2023-04-08T07:10:23.707Z,25.5503
2023-04-08T07:11:27.592Z,25.5281
2023-04-08T07:12:31.494Z,25.4546
2023-04-08T07:13:35.382Z,25.4166
2023-04-08T07:14:39.298Z,25.4446
2023-04-08T07:15:43.180Z,25.4270
2023-04-08T07:16:47.166Z,25.4241
2023-04-08T07:17:51.068Z,25.4206
2023-04-08T07:18:54.970Z,25.4195
2023-04-08T07:19:58.870Z,25.4482
2023-04-08T07:21:02.994Z,25.4722
2023-04-08T07:22:06.909Z,25.5439
2023-04-08T07:23:11.007Z,25.4691
2023-04-08T07:24:14.908Z,25.4649
2023-04-08T07:25:18.844Z,25.5345
2023-04-08T07:26:22.698Z,25.5205
2023-04-08T07:27:26.588Z,25.5612
2023-04-08T07:28:30.514Z,25.5116
2023-04-08T07:29:34.389Z,25.4637
2023-04-08T07:30:38.330Z,25.4584
2023-04-08T07:31:42.186Z,25.5022
2023-04-08T07:32:46.145Z,25.5870
2023-04-08T07:33:50.061Z,25.5508
2023-04-08T07:34:53.978Z,25.5832
2023-04-08T07:35:57.900Z,25.6711
2023-04-08T07:37:01.749Z,25.6046
2023-04-08T07:38:05.991Z,25.5403
2023-04-08T07:39:09.862Z,25.6295
2023-04-08T07:40:13.770Z,25.6404
2023-04-08T07:41:17.645Z,25.6300
2023-04-08T07:42:21.548Z,25.6180
2023-04-08T07:43:25.431Z,25.5766
2023-04-08T07:44:29.355Z,25.6229
2023-04-08T07:45:33.346Z,25.6182
2023-04-08T07:46:37.280Z,25.6838
2023-04-08T07:47:41.429Z,25.6754
2023-04-08T07:48:45.296Z,25.6255
2023-04-08T07:49:49.199Z,25.5937
2023-04-08T07:51:09.925Z,25.6622
2023-04-08T07:51:57.580Z,25.6433
2023-04-08T07:53:01.477Z,25.6598
2023-04-08T07:54:05.388Z,25.7185
2023-04-08T07:55:09.262Z,25.7263
2023-04-08T07:56:13.289Z,25.7613
2023-04-08T07:57:17.322Z,25.7519
2023-04-08T07:58:21.262Z,25.7582
2023-04-08T07:59:25.154Z,25.7851
2023-04-08T08:00:29.053Z,25.7664
2023-04-08T08:01:32.981Z,25.6809
2023-04-08T08:02:37.168Z,25.7003
2023-04-08T08:03:41.243Z,25.6814
2023-04-08T08:04:45.325Z,25.6954
2023-04-08T08:05:49.285Z,25.6950
2023-04-08T08:06:53.200Z,25.6671
2023-04-08T08:07:57.081Z,25.6823
2023-04-08T08:09:01.021Z,25.6525
2023-04-08T08:10:04.889Z,25.6638
2023-04-08T08:11:08.811Z,25.6881
2023-04-08T08:12:12.696Z,25.7148
2023-04-08T08:13:16.832Z,25.6318
2023-04-08T08:14:20.719Z,25.6362
2023-04-08T08:15:24.924Z,25.6979
2023-04-08T08:16:28.873Z,25.7504
2023-04-08T08:17:32.728Z,25.8120
2023-04-08T08:18:36.638Z,25.7412
2023-04-08T08:19:40.534Z,25.7210
2023-04-08T08:20:44.435Z,25.7168
2023-04-08T08:21:48.318Z,25.6905
2023-04-08T08:22:57.624Z,25.7450
2023-04-08T08:23:57.013Z,25.7443
2023-04-08T08:25:00.907Z,25.7753
2023-04-08T08:26:04.785Z,25.8358
2023-04-08T08:27:08.697Z,25.8872
2023-04-08T08:28:12.588Z,25.8699
2023-04-08T08:29:16.497Z,25.9057
2023-04-08T08:30:20.374Z,25.9170
2023-04-08T08:31:24.321Z,25.9477
2023-04-08T08:32:28.250Z,25.9629
2023-04-08T08:33:32.192Z,25.9506
2023-04-08T08:34:36.077Z,25.9437
2023-04-08T08:35:40.191Z,25.9226
2023-04-08T08:36:44.077Z,26.0254
2023-04-08T08:37:47.964Z,26.0348
2023-04-08T08:38:51.866Z,25.9849
2023-04-08T08:39:55.777Z,25.9638
2023-04-08T08:40:59.682Z,25.9960
2023-04-08T08:42:03.574Z,25.9845
2023-04-08T08:43:07.495Z,25.9943
2023-04-08T08:44:11.395Z,25.9807
2023-04-08T08:45:15.266Z,25.9996
2023-04-08T08:46:19.340Z,26.0058
2023-04-08T08:47:23.360Z,26.0813
2023-04-08T08:48:27.233Z,26.1089
2023-04-08T08:49:31.106Z,26.0817
2023-04-08T08:50:35.026Z,26.0806
2023-04-08T08:51:38.899Z,26.0641
2023-04-08T08:52:42.805Z,26.0761
2023-04-08T08:53:46.988Z,26.0699
2023-04-08T08:54:50.885Z,26.0848
2023-04-08T08:56:13.767Z,26.1458
2023-04-08T08:56:59.489Z,26.1383
2023-04-08T08:58:03.367Z,26.0779
2023-04-08T08:59:07.269Z,26.1498
2023-04-08T09:00:11.163Z,26.1669
2023-04-08T09:01:15.068Z,26.1983
2023-04-08T09:02:19.008Z,26.1950
2023-04-08T09:03:23.271Z,26.1142
2023-04-08T09:04:27.570Z,26.1320
2023-04-08T09:05:31.610Z,26.1037
2023-04-08T09:06:35.662Z,26.1169
2023-04-08T09:07:39.543Z,26.1358
2023-04-08T09:08:43.452Z,26.1527
2023-04-08T09:09:47.334Z,26.1772
2023-04-08T09:10:51.243Z,26.2090
2023-04-08T09:11:55.141Z,26.2110
2023-04-08T09:12:58.994Z,26.2913
2023-04-08T09:14:02.890Z,26.2611
2023-04-08T09:15:06.780Z,26.1772
2023-04-08T09:16:10.698Z,26.1910
2023-04-08T09:17:14.689Z,26.1943
2023-04-08T09:18:18.587Z,26.2154
2023-04-08T09:19:22.463Z,26.2526
2023-04-08T09:20:27.211Z,26.2951
2023-04-08T09:21:31.088Z,26.2920
2023-04-08T09:22:35.007Z,26.3269
2023-04-08T09:23:38.915Z,26.2715
2023-04-08T09:24:42.814Z,26.2840
2023-04-08T09:25:46.689Z,26.3183
2023-04-08T09:26:50.599Z,26.3479
2023-04-08T09:27:54.503Z,26.3961
2023-04-08T09:28:58.426Z,26.4033
2023-04-08T09:30:02.322Z,26.4050
2023-04-08T09:31:06.545Z,26.4102
2023-04-08T09:32:10.433Z,26.4233
2023-04-08T09:33:14.338Z,26.3774
2023-04-08T09:34:18.221Z,26.4019
2023-04-08T09:35:22.224Z,26.4148
2023-04-08T09:36:26.130Z,26.4284
2023-04-08T09:37:30.030Z,26.4146
2023-04-08T09:38:34.187Z,26.4019
2023-04-08T09:39:38.030Z,26.4311
2023-04-08T09:40:42.252Z,26.4231
2023-04-08T09:41:46.134Z,26.3966
2023-04-08T09:42:50.042Z,26.3964
2023-04-08T09:43:53.933Z,26.3828
2023-04-08T09:44:57.849Z,26.3118
2023-04-08T09:46:01.765Z,26.3147
2023-04-08T09:47:05.652Z,26.2495
2023-04-08T09:48:09.674Z,26.2973
2023-04-08T09:49:13.580Z,26.3866
2023-04-08T09:50:17.469Z,26.3964
2023-04-08T09:51:21.399Z,26.4458
2023-04-08T09:52:25.337Z,26.4444
2023-04-08T09:53:29.402Z,26.4253
2023-04-08T09:54:33.300Z,26.3670
2023-04-08T09:55:37.439Z,26.4722
2023-04-08T09:56:41.357Z,26.5032
2023-04-08T09:57:46.078Z,26.4500
2023-04-08T09:58:50.078Z,26.4558
2023-04-08T09:59:53.960Z,26.3852
2023-04-08T10:00:57.925Z,26.3875
2023-04-08T10:02:01.916Z,26.4507
2023-04-08T10:03:05.934Z,26.4166
2023-04-08T10:04:10.010Z,26.4242
2023-04-08T10:05:14.112Z,26.4215
2023-04-08T10:06:17.987Z,26.4769
2023-04-08T10:07:21.911Z,26.5087
2023-04-08T10:08:25.770Z,26.5067
2023-04-08T10:09:29.697Z,26.5208
2023-04-08T10:10:33.786Z,26.5419
2023-04-08T10:11:37.690Z,26.4967
2023-04-08T10:12:41.574Z,26.4531
2023-04-08T10:13:45.710Z,26.4611
2023-04-08T10:14:49.651Z,26.5412
2023-04-08T10:15:53.529Z,26.5557
2023-04-08T10:16:57.474Z,26.5472
2023-04-08T10:18:01.394Z,26.6398
2023-04-08T10:19:05.285Z,26.6171
2023-04-08T10:20:09.170Z,26.6897
2023-04-08T10:21:13.076Z,26.7584
2023-04-08T10:22:16.952Z,26.8746
2023-04-08T10:23:21.101Z,26.8982
2023-04-08T10:24:24.977Z,26.9157
2023-04-08T10:25:28.879Z,26.9108
2023-04-08T10:26:32.811Z,26.8603
2023-04-08T10:27:36.715Z,26.9102
2023-04-08T10:28:40.602Z,26.9306
2023-04-08T10:29:44.511Z,26.9418
2023-04-08T10:30:48.394Z,26.9493
2023-04-08T10:31:52.328Z,26.9353
2023-04-08T10:32:56.222Z,26.9262
2023-04-08T10:34:00.127Z,26.9075
2023-04-08T10:35:03.987Z,26.8764
2023-04-08T10:36:07.876Z,26.9166
2023-04-08T10:37:11.762Z,26.9280
2023-04-08T10:38:15.909Z,26.9456
2023-04-08T10:39:19.795Z,26.9489
2023-04-08T10:40:23.702Z,26.9358
2023-04-08T10:41:27.579Z,26.9380
2023-04-08T10:42:31.492Z,26.9384
2023-04-08T10:43:35.427Z,26.9264
2023-04-08T10:44:39.293Z,26.9351
2023-04-08T10:45:44.014Z,26.9075
2023-04-08T10:46:43.783Z,26.8872
2023-04-08T10:47:47.733Z,26.8290
2023-04-08T10:48:51.588Z,26.8238
2023-04-08T10:49:55.489Z,26.8123
2023-04-08T10:50:59.526Z,26.8548
2023-04-08T10:52:03.425Z,26.7869
2023-04-08T10:53:07.321Z,26.7613
2023-04-08T10:54:11.249Z,26.7896
2023-04-08T10:55:15.162Z,26.7878
2023-04-08T10:56:19.043Z,26.7506
2023-04-08T10:57:22.920Z,26.7282
2023-04-08T10:58:26.856Z,26.7104
2023-04-08T10:59:30.749Z,26.6663
2023-04-08T11:00:34.721Z,26.6908
2023-04-08T11:01:38.649Z,26.7230
2023-04-08T11:02:42.692Z,26.8120
2023-04-08T11:03:46.750Z,26.8189
2023-04-08T11:04:50.714Z,26.7422
2023-04-08T11:05:54.629Z,26.7773
2023-04-08T11:06:58.511Z,26.8207
2023-04-08T11:08:02.416Z,26.8483
2023-04-08T11:09:06.545Z,26.8207
2023-04-08T11:10:10.460Z,26.8272
2023-04-08T11:11:14.345Z,26.8367
2023-04-08T11:12:18.255Z,26.8706
2023-04-08T11:13:22.133Z,26.8706
2023-04-08T11:14:26.042Z,26.8723
2023-04-08T11:15:29.960Z,26.8997
2023-04-08T11:16:33.901Z,26.8752
2023-04-08T11:17:37.893Z,26.8893
2023-04-08T11:18:41.766Z,26.9039
2023-04-08T11:19:45.642Z,26.8955
2023-04-08T11:20:49.763Z,26.8841
2023-04-08T11:21:53.668Z,26.8715
2023-04-08T11:22:57.561Z,26.8950
2023-04-08T11:24:01.464Z,26.8853
2023-04-08T11:25:05.340Z,26.8817
2023-04-08T11:26:09.272Z,26.8145
2023-04-08T11:27:13.163Z,26.8083
2023-04-08T11:28:17.051Z,26.7377
2023-04-08T11:29:20.932Z,26.7110
2023-04-08T11:30:24.836Z,26.7233
2023-04-08T11:31:28.787Z,26.7197
2023-04-08T11:32:32.696Z,26.6843
2023-04-08T11:33:36.564Z,26.7048
2023-04-08T11:34:40.443Z,26.7304
2023-04-08T11:35:44.398Z,26.7017
2023-04-08T11:36:48.251Z,26.6327
2023-04-08T11:37:52.139Z,26.6556
2023-04-08T11:38:56.178Z,26.6492
2023-04-08T11:40:00.048Z,26.6848
2023-04-08T11:41:03.946Z,26.6120
2023-04-08T11:42:07.829Z,26.6658
2023-04-08T11:43:12.001Z,26.6523
2023-04-08T11:44:15.881Z,26.6941
2023-04-08T11:45:19.798Z,26.7095
2023-04-08T11:46:23.967Z,26.7088
2023-04-08T11:47:27.853Z,26.7224
2023-04-08T11:48:31.732Z,26.6583
2023-04-08T11:49:35.613Z,26.6000
2023-04-08T11:50:39.520Z,26.6349
2023-04-08T11:51:43.414Z,26.7083
2023-04-08T11:52:47.306Z,26.6963
2023-04-08T11:53:52.722Z,26.7375
2023-04-08T11:54:53.249Z,26.7527
2023-04-08T11:55:57.124Z,26.7057
2023-04-08T11:57:01.052Z,26.6658
2023-04-08T11:58:04.971Z,26.7152
2023-04-08T11:59:09.096Z,26.6930
2023-04-08T12:00:12.970Z,26.6723
2023-04-08T12:01:17.110Z,26.5659
2023-04-08T12:02:21.125Z,26.6445
2023-04-08T12:03:25.279Z,26.6961
2023-04-08T12:04:29.493Z,26.6925
2023-04-08T12:05:33.542Z,26.6394
2023-04-08T12:06:37.480Z,26.6311
2023-04-08T12:07:41.343Z,26.6872
2023-04-08T12:08:45.464Z,26.6683
2023-04-08T12:09:49.347Z,26.7391
2023-04-08T12:10:53.516Z,26.7704
2023-04-08T12:11:57.426Z,26.7718
2023-04-08T12:13:01.330Z,26.7524
2023-04-08T12:14:05.218Z,26.7052
2023-04-08T12:15:09.117Z,26.7059
2023-04-08T12:16:13.069Z,26.6322
2023-04-08T12:17:17.027Z,26.6603
2023-04-08T12:18:20.905Z,26.6988
2023-04-08T12:19:24.813Z,26.7152
2023-04-08T12:20:28.714Z,26.6376
2023-04-08T12:21:32.937Z,26.6863
2023-04-08T12:22:36.835Z,26.7246
2023-04-08T12:23:40.963Z,26.6198
2023-04-08T12:24:44.850Z,26.5555
2023-04-08T12:25:48.735Z,26.5281
2023-04-08T12:26:52.644Z,26.5940
2023-04-08T12:27:56.538Z,26.5726
2023-04-08T12:29:00.446Z,26.5016
2023-04-08T12:30:04.336Z,26.4798
2023-04-08T12:31:08.420Z,26.4607
2023-04-08T12:32:12.370Z,26.4515
2023-04-08T12:33:16.274Z,26.5030
2023-04-08T12:34:20.397Z,26.4765
2023-04-08T12:35:24.317Z,26.4613
2023-04-08T12:36:28.410Z,26.4540
2023-04-08T12:37:32.356Z,26.4651
2023-04-08T12:38:36.248Z,26.4622
2023-04-08T12:39:40.151Z,26.3917
2023-04-08T12:40:44.039Z,26.3973
2023-04-08T12:41:47.941Z,26.4213
2023-04-08T12:42:51.837Z,26.4257
2023-04-08T12:43:55.730Z,26.4173
2023-04-08T12:44:59.631Z,26.4222
2023-04-08T12:46:03.520Z,26.4883
2023-04-08T12:47:07.506Z,26.4738
2023-04-08T12:48:11.381Z,26.4360
2023-04-08T12:49:15.336Z,26.3461
2023-04-08T12:50:19.209Z,26.2898
2023-04-08T12:51:23.112Z,26.3467
2023-04-08T12:52:26.999Z,26.4360